Portland — WDG2201 — position and weather

sailwx.info

Track history (hours):
 
Tides and Currents Weather Stations Pressure Air Temp Water Temp Dewpoint Dewpoint Depression Visibility Wind Speed Wind Dir Waves Ship Positions

Portland

Owner: Shaver Transportation Company, Portland, OR. More information available from US FCC via Universal Licensing System and Coast Guard Vessel Documentation Center.

Last reported at 2018-May-28 00:56 UTC. Time now 2018-May-28 01:16 UTC.
Position N 46°05' W 122°56'.

Length 27 m; draft 4 m.

Type: Towing. MMSI: 367315814.

Date/timePositionNaut miles runAvg speedWind from/ knotsBaromVisibWave heightAir tempDewpointWater temp
2018-May-28 00:56N 46°05' W 122°56'0 0.0
2018-May-28 00:26N 46°05' W 122°56'0 0.0
2018-May-27 23:59N 46°05' W 122°56'0 0.0
2018-May-27 23:29N 46°05' W 122°56'0 0.0
2018-May-27 22:59N 46°05' W 122°56'0 0.0
2018-May-27 22:29N 46°05' W 122°56'0 0.0
2018-May-27 21:59N 46°05' W 122°56'0 0.0
2018-May-27 21:29N 46°05' W 122°56'0 0.0
2018-May-27 20:56N 46°05' W 122°56'0 0.0
2018-May-27 20:17N 46°05' W 122°56'0 0.0
2018-May-27 19:59N 46°05' W 122°56'0 0.0
2018-May-27 19:26N 46°05' W 122°56'0 0.0
2018-May-27 18:53N 46°05' W 122°56'0 0.0
2018-May-27 18:23N 46°05' W 122°56'0 0.0
2018-May-27 17:56N 46°05' W 122°56'0 0.0
2018-May-27 17:23N 46°05' W 122°56'0 0.0
2018-May-27 16:59N 46°05' W 122°56'0 0.0
2018-May-27 16:26N 46°05' W 122°56'0 0.0
2018-May-27 15:37N 46°05' W 122°56'0 0.0
2018-May-27 15:28N 46°05' W 122°56'0 0.0
2018-May-27 14:55N 46°05' W 122°56'0 0.0
2018-May-27 14:25N 46°05' W 122°56'0 0.0
2018-May-27 13:52N 46°05' W 122°56'0 0.0
2018-May-27 13:28N 46°05' W 122°56'0 0.0
2018-May-27 12:55N 46°05' W 122°56'0 0.0
2018-May-27 12:28N 46°05' W 122°56'0 0.0
2018-May-27 11:55N 46°05' W 122°56'0 0.0
2018-May-27 11:28N 46°05' W 122°56'0 0.0
2018-May-27 10:52N 46°05' W 122°56'0 0.0
2018-May-27 10:22N 46°05' W 122°56'0 0.0
2018-May-27 09:58N 46°05' W 122°56'0 0.0
2018-May-27 09:25N 46°05' W 122°56'0 0.0
2018-May-27 08:55N 46°05' W 122°56'0 0.0
2018-May-27 08:28N 46°05' W 122°56'0 0.0
2018-May-27 07:58N 46°05' W 122°56'0 0.0
2018-May-27 07:26N 46°05' W 122°56'0 0.0
2018-May-27 06:58N 46°05' W 122°56'0 0.0
2018-May-27 06:22N 46°05' W 122°56'0 0.0
2018-May-27 05:55N 46°05' W 122°56'0 0.0
2018-May-27 05:28N 46°05' W 122°56'0 0.0
2018-May-27 04:58N 46°05' W 122°56'0 0.0
2018-May-27 04:28N 46°05' W 122°56'0 0.0
2018-May-27 03:52N 46°05' W 122°56'0 0.0
2018-May-27 03:28N 46°05' W 122°56'0 0.0
2018-May-27 02:58N 46°05' W 122°56'0 0.0
2018-May-27 02:25N 46°05' W 122°56'0 0.0
2018-May-27 01:55N 46°05' W 122°56'0 0.0
2018-May-27 01:25N 46°05' W 122°56'0 0.0
2018-May-27 00:58N 46°05' W 122°56'0 0.0
2018-May-27 00:19N 46°05' W 122°56'0 0.0
2018-May-26 23:58N 46°05' W 122°56'0 0.0
2018-May-26 23:28N 46°05' W 122°56'0 0.0
2018-May-26 22:58N 46°05' W 122°56'0 0.0
2018-May-26 22:28N 46°05' W 122°56'0 0.0
2018-May-26 21:58N 46°05' W 122°56'0 0.0
2018-May-26 21:28N 46°05' W 122°56'0 0.0
2018-May-26 20:52N 46°05' W 122°56'0 0.0
2018-May-26 20:22N 46°05' W 122°56'0 0.0
2018-May-26 19:58N 46°05' W 122°56'1 1.8
2018-May-26 19:30N 46°05' W 122°55'511.0
2018-May-26 19:01N 46°00' W 122°51'2 3.0
2018-May-26 18:31N 45°59' W 122°50'0 0.3
2018-May-26 18:01N 45°59' W 122°50'4 8.2
2018-May-26 17:30N 46°03' W 122°53'4 7.6
2018-May-26 17:01N 46°06' W 122°56'0 0.7
2018-May-26 16:31N 46°06' W 122°56'0 0.0
2018-May-26 15:28N 46°06' W 122°56'0 0.0
2018-May-26 14:46N 46°06' W 122°56'0 0.3
2018-May-26 14:30N 46°06' W 122°56'1 1.0
2018-May-26 13:59N 46°05' W 122°56'0 0.0
2018-May-26 12:53N 46°05' W 122°56'0 0.0
2018-May-26 12:23N 46°05' W 122°56'0 0.0
2018-May-26 11:50N 46°05' W 122°56'0 0.0
2018-May-26 11:29N 46°05' W 122°56'0 0.0
2018-May-26 10:56N 46°05' W 122°56'0 0.0
2018-May-26 10:29N 46°05' W 122°56'0 0.0
2018-May-26 09:56N 46°05' W 122°56'0 0.0
2018-May-26 09:29N 46°05' W 122°56'0 0.0
2018-May-26 08:56N 46°05' W 122°56'0 0.0
2018-May-26 08:28N 46°05' W 122°56'0 0.0
2018-May-26 07:53N 46°05' W 122°56'0 0.0
2018-May-26 07:29N 46°05' W 122°56'0 0.0
2018-May-26 06:53N 46°05' W 122°56'0 0.0
2018-May-26 06:29N 46°05' W 122°56'0 0.0
2018-May-26 05:26N 46°05' W 122°56'0 0.0
2018-May-26 04:43N 46°05' W 122°56'0 0.0
2018-May-26 04:23N 46°05' W 122°56'0 0.0
2018-May-26 03:55N 46°05' W 122°56'0 0.0
2018-May-26 03:28N 46°05' W 122°56'0 0.0
2018-May-26 02:59N 46°05' W 122°56'0 0.0
2018-May-26 02:30N 46°05' W 122°56'3 6.2
2018-May-26 02:00N 46°03' W 122°53'510.9
2018-May-26 01:30N 45°58' W 122°50'510.7
2018-May-26 01:00N 45°53' W 122°48'610.4
2018-May-26 00:26N 45°47' W 122°47'410.5
2018-May-26 00:00N 45°43' W 122°46'4 7.6
2018-May-25 23:28N 45°39' W 122°45'1 1.3
2018-May-25 23:00N 45°39' W 122°46'3 5.2
2018-May-25 22:30N 45°37' W 122°47'0 0.3
2018-May-25 22:00N 45°37' W 122°47'1 2.9
2018-May-25 21:30N 45°38' W 122°47'2 2.6
2018-May-25 20:54N 45°39' W 122°45'0 0.0
2018-May-25 20:30N 45°39' W 122°45'0 0.0
2018-May-25 19:57N 45°39' W 122°45'0 0.0
2018-May-25 19:30N 45°39' W 122°45'2 4.8
2018-May-25 19:00N 45°37' W 122°47'0 0.6
2018-May-25 18:30N 45°37' W 122°47'2 3.9
2018-May-25 18:00N 45°39' W 122°46'1 1.8
2018-May-25 17:30N 45°39' W 122°45'0 0.0
2018-May-25 17:00N 45°39' W 122°45'0 0.0
2018-May-25 16:30N 45°39' W 122°45'0 0.0
2018-May-25 16:00N 45°39' W 122°45'0 0.0
2018-May-25 15:30N 45°39' W 122°45'0 0.0
2018-May-25 15:00N 45°39' W 122°45'0 0.0
2018-May-25 14:30N 45°39' W 122°45'0 0.0
2018-May-25 14:00N 45°39' W 122°45'0 0.0
2018-May-25 13:30N 45°39' W 122°45'0 0.0
2018-May-25 12:47N 45°39' W 122°45'0 0.0
2018-May-25 12:30N 45°39' W 122°45'0 0.0
2018-May-25 12:00N 45°39' W 122°45'0 0.0
2018-May-25 11:30N 45°39' W 122°45'0 0.0
2018-May-25 11:00N 45°39' W 122°45'0 0.0
2018-May-25 10:30N 45°39' W 122°45'0 0.0
2018-May-25 10:00N 45°39' W 122°45'0 0.0
2018-May-25 09:30N 45°39' W 122°45'0 0.0
2018-May-25 09:00N 45°39' W 122°45'0 0.0
2018-May-25 08:30N 45°39' W 122°45'0 0.0
2018-May-25 08:00N 45°39' W 122°45'0 0.0
2018-May-25 07:30N 45°39' W 122°45'0 0.0
2018-May-25 06:44N 45°39' W 122°45'0 0.0
2018-May-25 06:30N 45°39' W 122°45'0 0.0
2018-May-25 06:00N 45°39' W 122°45'0 0.0
2018-May-25 05:30N 45°39' W 122°45'0 0.0
2018-May-25 05:00N 45°39' W 122°45'0 0.0
2018-May-25 04:27N 45°39' W 122°45'0 0.0
2018-May-25 04:00N 45°39' W 122°45'0 0.0
2018-May-25 03:30N 45°39' W 122°45'0 0.0
2018-May-25 03:00N 45°39' W 122°45'0 0.0
2018-May-25 02:30N 45°39' W 122°45'0 0.0
2018-May-25 01:58N 45°39' W 122°45'0 0.0
2018-May-25 01:14N 45°39' W 122°45'0 0.0
2018-May-25 01:00N 45°39' W 122°45'0 0.0
2018-May-25 00:30N 45°39' W 122°45'0 0.0
2018-May-24 23:53N 45°39' W 122°45'0 0.0
2018-May-24 23:30N 45°39' W 122°45'0 0.0
2018-May-24 23:00N 45°39' W 122°45'0 0.0
2018-May-24 22:30N 45°39' W 122°45'0 0.0
2018-May-24 21:51N 45°39' W 122°45'0 0.0
2018-May-24 21:30N 45°39' W 122°45'1 2.2
2018-May-24 21:00N 45°38' W 122°47'1 1.6
2018-May-24 20:30N 45°39' W 122°46'1 1.0
2018-May-24 19:50N 45°39' W 122°45'0 0.4
2018-May-24 19:30N 45°39' W 122°45'0 0.0
2018-May-24 19:00N 45°39' W 122°45'0 0.0
2018-May-24 18:30N 45°39' W 122°45'0 0.0
2018-May-24 18:00N 45°39' W 122°45'1 1.1
2018-May-24 17:22N 45°39' W 122°46'1 1.8
2018-May-24 17:00N 45°39' W 122°46'1 1.8
2018-May-24 16:30N 45°39' W 122°45'2 3.4
2018-May-24 15:56N 45°38' W 122°43'1 2.4
2018-May-24 15:30N 45°38' W 122°42'3 3.9
2018-May-24 14:48N 45°39' W 122°45'0 0.0
2018-May-24 14:27N 45°39' W 122°45'0 0.0
2018-May-24 13:54N 45°39' W 122°45'0 0.0
2018-May-24 13:30N 45°39' W 122°45'0 0.0
2018-May-24 08:59N 45°39' W 122°45'0 0.0
2018-May-24 08:20N 45°39' W 122°45'0 0.0
2018-May-24 07:59N 45°39' W 122°45'0 0.0
2018-May-24 07:23N 45°39' W 122°45'0 0.0
2018-May-24 06:56N 45°39' W 122°45'0 0.0
2018-May-24 06:29N 45°39' W 122°45'0 0.0
2018-May-24 05:59N 45°39' W 122°45'0 0.0
2018-May-24 05:26N 45°39' W 122°45'0 0.0
2018-May-24 04:59N 45°39' W 122°45'2 3.2
2018-May-24 04:31N 45°38' W 122°47'2 4.2
2018-May-24 03:59N 45°36' W 122°47'1 1.3
2018-May-24 03:16N 45°37' W 122°47'0 1.7
2018-May-24 03:01N 45°37' W 122°47'1 2.6
2018-May-24 02:31N 45°38' W 122°47'2 4.5
2018-May-24 02:00N 45°38' W 122°44'2 1.8
2018-May-24 00:59N 45°39' W 122°46'4 8.5
2018-May-24 00:30N 45°43' W 122°46'4 8.7
2018-May-23 23:59N 45°48' W 122°47'4 8.8
2018-May-23 23:30N 45°52' W 122°47'4 8.9
2018-May-23 23:00N 45°56' W 122°48'4 9.0
2018-May-23 22:31N 46°00' W 122°51'1 2.1
2018-May-23 22:00N 45°59' W 122°51'1 1.2
2018-May-23 21:30N 45°59' W 122°50'0 0.0
2018-May-23 20:59N 45°59' W 122°50'1 1.5
2018-May-23 20:30N 45°60' W 122°51'0 0.5
2018-May-23 20:01N 45°59' W 122°50'0 0.0
2018-May-23 19:15N 45°59' W 122°50'0 1.7
2018-May-23 19:01N 45°59' W 122°50'1 1.2
2018-May-23 18:15N 45°60' W 122°51'310.0
2018-May-23 17:54N 46°03' W 122°53'6 8.6
2018-May-23 17:14N 46°07' W 122°59'1 3.7
2018-May-23 17:00N 46°08' W 122°59'0 0.2
2018-May-23 16:16N 46°08' W 122°59'1 4.7
2018-May-23 16:00N 46°07' W 122°58'2 4.2
2018-May-23 15:31N 46°05' W 122°56'0 0.0
2018-May-23 15:01N 46°05' W 122°56'0 0.0
2018-May-23 14:30N 46°05' W 122°56'0 0.0
2018-May-23 14:00N 46°05' W 122°56'0 0.0
2018-May-23 13:30N 46°05' W 122°56'0 0.0
2018-May-23 12:11N 46°05' W 122°56'0 0.0
2018-May-23 11:41N 46°05' W 122°56'0 0.0
2018-May-23 11:16N 46°05' W 122°56'0 0.0
2018-May-23 11:00N 46°05' W 122°56'0 0.0
2018-May-23 10:30N 46°05' W 122°56'3 5.7
2018-May-23 10:00N 46°07' W 122°59'4 7.8
2018-May-23 09:30N 46°09' W 123°04'4 7.8
2018-May-23 09:00N 46°11' W 123°09'4 7.7
2018-May-23 08:31N 46°10' W 123°14'4 7.8
2018-May-23 08:00N 46°09' W 123°19'4 7.7
2018-May-23 07:30N 46°10' W 123°24'4 8.1
2018-May-23 06:59N 46°14' W 123°26'4 8.1
2018-May-23 06:30N 46°16' W 123°30'4 9.1
2018-May-23 06:01N 46°15' W 123°37'6 9.4
2018-May-23 05:21N 46°13' W 123°45'310.1
2018-May-23 05:00N 46°12' W 123°50'1 2.5
2018-May-23 04:28N 46°11' W 123°52'0 0.3
2018-May-23 04:00N 46°11' W 123°52'1 2.7
2018-May-23 03:30N 46°11' W 123°54'1 2.2
2018-May-23 02:54N 46°11' W 123°52'0 0.4
2018-May-23 02:30N 46°11' W 123°52'0 0.0
2018-May-23 02:00N 46°11' W 123°52'0 0.0
2018-May-23 01:30N 46°11' W 123°52'0 0.0
2018-May-23 01:00N 46°11' W 123°52'0 0.0
2018-May-23 00:30N 46°11' W 123°52'3 4.6
2018-May-22 23:46N 46°13' W 123°47'311.5
2018-May-22 23:31N 46°14' W 123°43'612.3
2018-May-22 23:01N 46°15' W 123°35'611.7
2018-May-22 22:31N 46°15' W 123°26'612.8
2018-May-22 22:00N 46°09' W 123°22'713.5
2018-May-22 21:30N 46°10' W 123°13'612.6
2018-May-22 21:00N 46°09' W 123°04'713.3
2018-May-22 20:31N 46°06' W 122°56'1 2.6
2018-May-22 20:01N 46°06' W 122°58'2 3.8
2018-May-22 19:30N 46°08' W 122°59'0 0.0
2018-May-22 19:00N 46°08' W 122°59'0 1.0
2018-May-22 18:30N 46°08' W 123°00'1 0.9
2018-May-22 17:55N 46°08' W 122°59'3 7.7
2018-May-22 17:30N 46°06' W 122°56'713.8
2018-May-22 17:01N 45°60' W 122°51'2 3.2
2018-May-22 16:30N 46°01' W 122°52'4 8.6
2018-May-22 16:00N 46°05' W 122°55'1 1.6
2018-May-22 15:24N 46°05' W 122°56'0 0.0
2018-May-22 15:01N 46°05' W 122°56'0 0.0
2018-May-22 14:30N 46°05' W 122°56'0 0.0
2018-May-22 14:00N 46°05' W 122°56'0 0.0
2018-May-22 13:15N 46°05' W 122°56'0 0.0
2018-May-22 12:57N 46°05' W 122°56'0 0.0
2018-May-22 12:30N 46°05' W 122°56'0 0.0
2018-May-22 12:00N 46°05' W 122°56'0 0.0
2018-May-22 11:30N 46°05' W 122°56'0 0.0
2018-May-22 11:00N 46°05' W 122°56'0 0.0
2018-May-22 10:30N 46°05' W 122°56'0 0.0
2018-May-22 10:00N 46°05' W 122°56'0 0.0
2018-May-22 09:30N 46°05' W 122°56'0 0.0
2018-May-22 09:00N 46°05' W 122°56'0 0.0
2018-May-22 08:30N 46°05' W 122°56'0 0.0
2018-May-22 07:52N 46°05' W 122°56'0 0.0
2018-May-22 07:30N 46°05' W 122°56'0 0.0
2018-May-22 06:52N 46°05' W 122°56'0 0.0
2018-May-22 06:30N 46°05' W 122°56'0 0.0
2018-May-22 05:58N 46°05' W 122°56'0 0.0
2018-May-22 05:30N 46°05' W 122°56'0 0.0
2018-May-22 05:00N 46°05' W 122°56'0 0.0
2018-May-22 04:18N 46°05' W 122°56'0 0.0
2018-May-22 04:00N 46°05' W 122°56'0 0.0
2018-May-22 03:31N 46°05' W 122°56'0 0.0
2018-May-22 02:45N 46°05' W 122°56'0 0.0
2018-May-22 02:30N 46°05' W 122°56'0 0.0
2018-May-22 02:00N 46°05' W 122°56'0 0.0
2018-May-22 01:31N 46°05' W 122°56'0 0.0
2018-May-22 01:00N 46°05' W 122°56'0 0.0
2018-May-22 00:30N 46°05' W 122°56'0 0.0
2018-May-22 00:00N 46°05' W 122°56'0 0.0
2018-May-21 23:30N 46°05' W 122°56'0 0.0
2018-May-21 22:59N 46°05' W 122°56'0 0.0
2018-May-21 22:30N 46°05' W 122°56'0 0.0
2018-May-21 22:00N 46°05' W 122°56'0 0.0
2018-May-21 21:30N 46°05' W 122°56'0 0.0
2018-May-21 21:00N 46°05' W 122°56'0 0.0
2018-May-21 20:30N 46°05' W 122°56'0 0.0
2018-May-21 20:01N 46°05' W 122°56'0 0.0
2018-May-21 19:30N 46°05' W 122°56'0 0.0
2018-May-21 19:00N 46°05' W 122°56'0 0.0
2018-May-21 18:30N 46°05' W 122°56'0 0.0
2018-May-21 18:00N 46°05' W 122°56'0 0.0
2018-May-21 17:30N 46°05' W 122°56'0 0.0
2018-May-21 17:00N 46°05' W 122°56'0 0.0
2018-May-21 16:30N 46°05' W 122°56'0 0.0
2018-May-21 16:00N 46°05' W 122°56'0 0.0
2018-May-21 15:15N 46°05' W 122°56'0 0.0
2018-May-21 15:01N 46°05' W 122°56'0 0.0
2018-May-21 14:30N 46°05' W 122°56'0 0.0
2018-May-21 14:00N 46°05' W 122°56'0 0.0
2018-May-21 13:30N 46°05' W 122°56'0 0.0
2018-May-21 13:00N 46°05' W 122°56'0 0.0
2018-May-21 12:23N 46°05' W 122°56'0 0.0
2018-May-21 11:47N 46°05' W 122°56'0 0.0
2018-May-21 11:30N 46°05' W 122°56'0 0.0
2018-May-21 11:00N 46°05' W 122°56'0 0.0
2018-May-21 10:30N 46°05' W 122°56'0 0.0
2018-May-21 09:44N 46°05' W 122°56'0 0.0
2018-May-21 09:17N 46°05' W 122°56'0 0.0
2018-May-21 09:00N 46°05' W 122°56'0 0.0
2018-May-21 08:30N 46°05' W 122°56'0 0.0
2018-May-21 08:00N 46°05' W 122°56'0 0.0
2018-May-21 07:30N 46°05' W 122°56'0 0.0
2018-May-21 06:59N 46°05' W 122°56'0 0.0
2018-May-21 06:30N 46°05' W 122°56'0 0.0
2018-May-21 06:00N 46°05' W 122°56'0 0.0
2018-May-21 05:30N 46°05' W 122°56'0 0.0
2018-May-21 05:00N 46°05' W 122°56'0 0.0
2018-May-21 04:30N 46°05' W 122°56'0 0.0
2018-May-21 04:00N 46°05' W 122°56'0 0.0
2018-May-21 03:30N 46°05' W 122°56'0 0.0
2018-May-21 03:00N 46°05' W 122°56'0 0.0
2018-May-21 02:30N 46°05' W 122°56'0 0.0
2018-May-21 01:42N 46°05' W 122°56'0 0.0
2018-May-21 01:30N 46°05' W 122°56'0 0.0
2018-May-21 01:00N 46°05' W 122°56'0 0.0
2018-May-21 00:30N 46°05' W 122°56'0 0.0
2018-May-21 00:00N 46°05' W 122°56'0 0.0
2018-May-20 23:31N 46°05' W 122°56'0 0.0
2018-May-20 22:52N 46°05' W 122°56'0 0.0
2018-May-20 22:30N 46°05' W 122°56'0 0.0
2018-May-20 22:00N 46°05' W 122°56'0 0.0
2018-May-20 21:30N 46°05' W 122°56'0 0.0
2018-May-20 21:00N 46°05' W 122°56'0 0.0
2018-May-20 20:30N 46°05' W 122°56'0 0.0
2018-May-20 20:00N 46°05' W 122°56'0 0.0
2018-May-20 19:30N 46°05' W 122°56'0 0.0
2018-May-20 19:00N 46°05' W 122°56'0 0.0
2018-May-20 18:30N 46°05' W 122°56'0 0.0
2018-May-20 17:37N 46°05' W 122°56'0 0.0
2018-May-20 17:30N 46°05' W 122°56'0 0.0
2018-May-20 16:53N 46°05' W 122°56'0 0.0
2018-May-20 16:21N 46°05' W 122°56'0 0.0
2018-May-20 16:00N 46°05' W 122°56'0 0.0
2018-May-20 15:30N 46°05' W 122°56'0 0.0
2018-May-20 15:00N 46°05' W 122°56'0 0.0
2018-May-20 14:30N 46°05' W 122°56'0 0.0
2018-May-20 14:00N 46°05' W 122°56'0 0.0
2018-May-20 13:30N 46°05' W 122°56'0 0.0
2018-May-20 13:00N 46°05' W 122°56'0 0.0
2018-May-20 12:30N 46°05' W 122°56'0 0.0
2018-May-20 12:00N 46°05' W 122°56'0 0.0
2018-May-20 11:30N 46°05' W 122°56'0 0.0
2018-May-20 11:00N 46°05' W 122°56'0 0.0
2018-May-20 10:30N 46°05' W 122°56'0 0.0
2018-May-20 10:00N 46°05' W 122°56'0 0.0
2018-May-20 06:59N 46°05' W 122°56'0 0.0
2018-May-20 06:30N 46°05' W 122°56'0 0.0
2018-May-20 06:00N 46°05' W 122°56'0 0.0
2018-May-20 05:11N 46°05' W 122°56'0 0.0
2018-May-20 05:00N 46°05' W 122°56'0 0.0
2018-May-20 04:30N 46°05' W 122°56'0 0.0
2018-May-20 03:48N 46°05' W 122°56'0 0.0
2018-May-20 03:30N 46°05' W 122°56'0 0.0
2018-May-20 03:00N 46°05' W 122°56'0 0.0
2018-May-20 02:30N 46°05' W 122°56'0 0.0
2018-May-20 02:00N 46°05' W 122°56'0 0.0
2018-May-20 01:30N 46°05' W 122°56'0 0.0
2018-May-20 01:00N 46°05' W 122°56'0 0.0
2018-May-20 00:30N 46°05' W 122°56'0 0.0
2018-May-20 00:00N 46°05' W 122°56'0 0.0
2018-May-19 23:30N 46°05' W 122°56'0 0.0
2018-May-19 23:00N 46°05' W 122°56'0 0.0
2018-May-19 22:30N 46°05' W 122°56'0 0.0
2018-May-19 22:00N 46°05' W 122°56'0 0.0
2018-May-19 21:29N 46°05' W 122°56'0 0.0
2018-May-19 21:00N 46°05' W 122°56'0 0.0
2018-May-19 20:30N 46°05' W 122°56'0 0.0
2018-May-19 20:00N 46°05' W 122°56'0 0.0
2018-May-19 19:30N 46°05' W 122°56'0 0.0
2018-May-19 18:50N 46°05' W 122°56'0 0.0
2018-May-19 18:30N 46°05' W 122°56'0 0.0
2018-May-19 18:00N 46°05' W 122°56'0 0.0
2018-May-19 17:30N 46°05' W 122°56'0 0.0
2018-May-19 17:00N 46°05' W 122°56'0 0.0
2018-May-19 16:30N 46°05' W 122°56'0 0.0
2018-May-19 16:00N 46°05' W 122°56'0 0.0
2018-May-19 15:24N 46°05' W 122°56'0 0.0
2018-May-19 15:00N 46°05' W 122°56'0 0.0
2018-May-19 14:30N 46°05' W 122°56'0 0.0
2018-May-19 14:00N 46°05' W 122°56'0 0.0
2018-May-19 13:30N 46°05' W 122°56'0 0.0
2018-May-19 13:00N 46°05' W 122°56'0 0.0
2018-May-19 12:30N 46°05' W 122°56'0 0.0
2018-May-19 12:00N 46°05' W 122°56'0 0.0
2018-May-19 11:30N 46°05' W 122°56'0 0.0
2018-May-19 11:00N 46°05' W 122°56'0 0.0
2018-May-19 10:30N 46°05' W 122°56'0 0.0
2018-May-19 10:00N 46°05' W 122°56'0 0.0
2018-May-19 09:30N 46°05' W 122°56'0 0.0
2018-May-19 09:00N 46°05' W 122°56'0 0.0
2018-May-19 08:30N 46°05' W 122°56'0 0.0
2018-May-19 08:00N 46°05' W 122°56'0 0.0
2018-May-19 07:30N 46°05' W 122°56'0 0.0
2018-May-19 06:50N 46°05' W 122°56'0 0.0
2018-May-19 06:30N 46°05' W 122°56'0 0.0
2018-May-19 06:00N 46°05' W 122°56'0 0.0
2018-May-19 05:30N 46°05' W 122°56'0 0.0
2018-May-19 05:00N 46°05' W 122°56'0 0.0
2018-May-19 04:30N 46°05' W 122°56'0 0.0
2018-May-19 03:44N 46°05' W 122°56'0 0.0
2018-May-19 03:30N 46°05' W 122°56'0 0.0
2018-May-19 02:59N 46°05' W 122°56'0 0.0
2018-May-19 02:31N 46°05' W 122°56'0 0.0
2018-May-19 01:52N 46°05' W 122°56'0 0.0
2018-May-19 01:12N 46°05' W 122°56'0 0.0
2018-May-19 01:00N 46°05' W 122°56'  
Track history (hours):
 
Tides and Currents Weather Stations Pressure Air Temp Water Temp Dewpoint Dewpoint Depression Visibility Wind Speed Wind Dir Waves Ship Positions

Portland

Owner: Shaver Transportation Company, Portland, OR. More information available from US FCC via Universal Licensing System and Coast Guard Vessel Documentation Center.

Last reported at 2018-May-28 00:56 UTC. Time now 2018-May-28 01:16 UTC.
Position N 46°05' W 122°56'.

Length 27 m; draft 4 m.

Type: Towing. MMSI: 367315814.

Date/timePositionNaut miles runAvg speedWind from/ knotsBaromVisibWave heightAir tempDewpointWater temp
2018-May-28 00:56N 46°05' W 122°56'0 0.0
2018-May-28 00:26N 46°05' W 122°56'0 0.0
2018-May-27 23:59N 46°05' W 122°56'0 0.0
2018-May-27 23:29N 46°05' W 122°56'0 0.0
2018-May-27 22:59N 46°05' W 122°56'0 0.0
2018-May-27 22:29N 46°05' W 122°56'0 0.0
2018-May-27 21:59N 46°05' W 122°56'0 0.0
2018-May-27 21:29N 46°05' W 122°56'0 0.0
2018-May-27 20:56N 46°05' W 122°56'0 0.0
2018-May-27 20:17N 46°05' W 122°56'0 0.0
2018-May-27 19:59N 46°05' W 122°56'0 0.0
2018-May-27 19:26N 46°05' W 122°56'0 0.0
2018-May-27 18:53N 46°05' W 122°56'0 0.0
2018-May-27 18:23N 46°05' W 122°56'0 0.0
2018-May-27 17:56N 46°05' W 122°56'0 0.0
2018-May-27 17:23N 46°05' W 122°56'0 0.0
2018-May-27 16:59N 46°05' W 122°56'0 0.0
2018-May-27 16:26N 46°05' W 122°56'0 0.0
2018-May-27 15:37N 46°05' W 122°56'0 0.0
2018-May-27 15:28N 46°05' W 122°56'0 0.0
2018-May-27 14:55N 46°05' W 122°56'0 0.0
2018-May-27 14:25N 46°05' W 122°56'0 0.0
2018-May-27 13:52N 46°05' W 122°56'0 0.0
2018-May-27 13:28N 46°05' W 122°56'0 0.0
2018-May-27 12:55N 46°05' W 122°56'0 0.0
2018-May-27 12:28N 46°05' W 122°56'0 0.0
2018-May-27 11:55N 46°05' W 122°56'0 0.0
2018-May-27 11:28N 46°05' W 122°56'0 0.0
2018-May-27 10:52N 46°05' W 122°56'0 0.0
2018-May-27 10:22N 46°05' W 122°56'0 0.0
2018-May-27 09:58N 46°05' W 122°56'0 0.0
2018-May-27 09:25N 46°05' W 122°56'0 0.0
2018-May-27 08:55N 46°05' W 122°56'0 0.0
2018-May-27 08:28N 46°05' W 122°56'0 0.0
2018-May-27 07:58N 46°05' W 122°56'0 0.0
2018-May-27 07:26N 46°05' W 122°56'0 0.0
2018-May-27 06:58N 46°05' W 122°56'0 0.0
2018-May-27 06:22N 46°05' W 122°56'0 0.0
2018-May-27 05:55N 46°05' W 122°56'0 0.0
2018-May-27 05:28N 46°05' W 122°56'0 0.0
2018-May-27 04:58N 46°05' W 122°56'0 0.0
2018-May-27 04:28N 46°05' W 122°56'0 0.0
2018-May-27 03:52N 46°05' W 122°56'0 0.0
2018-May-27 03:28N 46°05' W 122°56'0 0.0
2018-May-27 02:58N 46°05' W 122°56'0 0.0
2018-May-27 02:25N 46°05' W 122°56'0 0.0
2018-May-27 01:55N 46°05' W 122°56'0 0.0
2018-May-27 01:25N 46°05' W 122°56'0 0.0
2018-May-27 00:58N 46°05' W 122°56'0 0.0
2018-May-27 00:19N 46°05' W 122°56'0 0.0
2018-May-26 23:58N 46°05' W 122°56'0 0.0
2018-May-26 23:28N 46°05' W 122°56'0 0.0
2018-May-26 22:58N 46°05' W 122°56'0 0.0
2018-May-26 22:28N 46°05' W 122°56'0 0.0
2018-May-26 21:58N 46°05' W 122°56'0 0.0
2018-May-26 21:28N 46°05' W 122°56'0 0.0
2018-May-26 20:52N 46°05' W 122°56'0 0.0
2018-May-26 20:22N 46°05' W 122°56'0 0.0
2018-May-26 19:58N 46°05' W 122°56'1 1.8
2018-May-26 19:30N 46°05' W 122°55'511.0
2018-May-26 19:01N 46°00' W 122°51'2 3.0
2018-May-26 18:31N 45°59' W 122°50'0 0.3
2018-May-26 18:01N 45°59' W 122°50'4 8.2
2018-May-26 17:30N 46°03' W 122°53'4 7.6
2018-May-26 17:01N 46°06' W 122°56'0 0.7
2018-May-26 16:31N 46°06' W 122°56'0 0.0
2018-May-26 15:28N 46°06' W 122°56'0 0.0
2018-May-26 14:46N 46°06' W 122°56'0 0.3
2018-May-26 14:30N 46°06' W 122°56'1 1.0
2018-May-26 13:59N 46°05' W 122°56'0 0.0
2018-May-26 12:53N 46°05' W 122°56'0 0.0
2018-May-26 12:23N 46°05' W 122°56'0 0.0
2018-May-26 11:50N 46°05' W 122°56'0 0.0
2018-May-26 11:29N 46°05' W 122°56'0 0.0
2018-May-26 10:56N 46°05' W 122°56'0 0.0
2018-May-26 10:29N 46°05' W 122°56'0 0.0
2018-May-26 09:56N 46°05' W 122°56'0 0.0
2018-May-26 09:29N 46°05' W 122°56'0 0.0
2018-May-26 08:56N 46°05' W 122°56'0 0.0
2018-May-26 08:28N 46°05' W 122°56'0 0.0
2018-May-26 07:53N 46°05' W 122°56'0 0.0
2018-May-26 07:29N 46°05' W 122°56'0 0.0
2018-May-26 06:53N 46°05' W 122°56'0 0.0
2018-May-26 06:29N 46°05' W 122°56'0 0.0
2018-May-26 05:26N 46°05' W 122°56'0 0.0
2018-May-26 04:43N 46°05' W 122°56'0 0.0
2018-May-26 04:23N 46°05' W 122°56'0 0.0
2018-May-26 03:55N 46°05' W 122°56'0 0.0
2018-May-26 03:28N 46°05' W 122°56'0 0.0
2018-May-26 02:59N 46°05' W 122°56'0 0.0
2018-May-26 02:30N 46°05' W 122°56'3 6.2
2018-May-26 02:00N 46°03' W 122°53'510.9
2018-May-26 01:30N 45°58' W 122°50'510.7
2018-May-26 01:00N 45°53' W 122°48'610.4
2018-May-26 00:26N 45°47' W 122°47'410.5
2018-May-26 00:00N 45°43' W 122°46'4 7.6
2018-May-25 23:28N 45°39' W 122°45'1 1.3
2018-May-25 23:00N 45°39' W 122°46'3 5.2
2018-May-25 22:30N 45°37' W 122°47'0 0.3
2018-May-25 22:00N 45°37' W 122°47'1 2.9
2018-May-25 21:30N 45°38' W 122°47'2 2.6
2018-May-25 20:54N 45°39' W 122°45'0 0.0
2018-May-25 20:30N 45°39' W 122°45'0 0.0
2018-May-25 19:57N 45°39' W 122°45'0 0.0
2018-May-25 19:30N 45°39' W 122°45'2 4.8
2018-May-25 19:00N 45°37' W 122°47'0 0.6
2018-May-25 18:30N 45°37' W 122°47'2 3.9
2018-May-25 18:00N 45°39' W 122°46'1 1.8
2018-May-25 17:30N 45°39' W 122°45'0 0.0
2018-May-25 17:00N 45°39' W 122°45'0 0.0
2018-May-25 16:30N 45°39' W 122°45'0 0.0
2018-May-25 16:00N 45°39' W 122°45'0 0.0
2018-May-25 15:30N 45°39' W 122°45'0 0.0
2018-May-25 15:00N 45°39' W 122°45'0 0.0
2018-May-25 14:30N 45°39' W 122°45'0 0.0
2018-May-25 14:00N 45°39' W 122°45'0 0.0
2018-May-25 13:30N 45°39' W 122°45'0 0.0
2018-May-25 12:47N 45°39' W 122°45'0 0.0
2018-May-25 12:30N 45°39' W 122°45'0 0.0
2018-May-25 12:00N 45°39' W 122°45'0 0.0
2018-May-25 11:30N 45°39' W 122°45'0 0.0
2018-May-25 11:00N 45°39' W 122°45'0 0.0
2018-May-25 10:30N 45°39' W 122°45'0 0.0
2018-May-25 10:00N 45°39' W 122°45'0 0.0
2018-May-25 09:30N 45°39' W 122°45'0 0.0
2018-May-25 09:00N 45°39' W 122°45'0 0.0
2018-May-25 08:30N 45°39' W 122°45'0 0.0
2018-May-25 08:00N 45°39' W 122°45'0 0.0
2018-May-25 07:30N 45°39' W 122°45'0 0.0
2018-May-25 06:44N 45°39' W 122°45'0 0.0
2018-May-25 06:30N 45°39' W 122°45'0 0.0
2018-May-25 06:00N 45°39' W 122°45'0 0.0
2018-May-25 05:30N 45°39' W 122°45'0 0.0
2018-May-25 05:00N 45°39' W 122°45'0 0.0
2018-May-25 04:27N 45°39' W 122°45'0 0.0
2018-May-25 04:00N 45°39' W 122°45'0 0.0
2018-May-25 03:30N 45°39' W 122°45'0 0.0
2018-May-25 03:00N 45°39' W 122°45'0 0.0
2018-May-25 02:30N 45°39' W 122°45'0 0.0
2018-May-25 01:58N 45°39' W 122°45'0 0.0
2018-May-25 01:14N 45°39' W 122°45'0 0.0
2018-May-25 01:00N 45°39' W 122°45'0 0.0
2018-May-25 00:30N 45°39' W 122°45'0 0.0
2018-May-24 23:53N 45°39' W 122°45'0 0.0
2018-May-24 23:30N 45°39' W 122°45'0 0.0
2018-May-24 23:00N 45°39' W 122°45'0 0.0
2018-May-24 22:30N 45°39' W 122°45'0 0.0
2018-May-24 21:51N 45°39' W 122°45'0 0.0
2018-May-24 21:30N 45°39' W 122°45'1 2.2
2018-May-24 21:00N 45°38' W 122°47'1 1.6
2018-May-24 20:30N 45°39' W 122°46'1 1.0
2018-May-24 19:50N 45°39' W 122°45'0 0.4
2018-May-24 19:30N 45°39' W 122°45'0 0.0
2018-May-24 19:00N 45°39' W 122°45'0 0.0
2018-May-24 18:30N 45°39' W 122°45'0 0.0
2018-May-24 18:00N 45°39' W 122°45'1 1.1
2018-May-24 17:22N 45°39' W 122°46'1 1.8
2018-May-24 17:00N 45°39' W 122°46'1 1.8
2018-May-24 16:30N 45°39' W 122°45'2 3.4
2018-May-24 15:56N 45°38' W 122°43'1 2.4
2018-May-24 15:30N 45°38' W 122°42'3 3.9
2018-May-24 14:48N 45°39' W 122°45'0 0.0
2018-May-24 14:27N 45°39' W 122°45'0 0.0
2018-May-24 13:54N 45°39' W 122°45'0 0.0
2018-May-24 13:30N 45°39' W 122°45'0 0.0
2018-May-24 08:59N 45°39' W 122°45'0 0.0
2018-May-24 08:20N 45°39' W 122°45'0 0.0
2018-May-24 07:59N 45°39' W 122°45'0 0.0
2018-May-24 07:23N 45°39' W 122°45'0 0.0
2018-May-24 06:56N 45°39' W 122°45'0 0.0
2018-May-24 06:29N 45°39' W 122°45'0 0.0
2018-May-24 05:59N 45°39' W 122°45'0 0.0
2018-May-24 05:26N 45°39' W 122°45'0 0.0
2018-May-24 04:59N 45°39' W 122°45'2 3.2
2018-May-24 04:31N 45°38' W 122°47'2 4.2
2018-May-24 03:59N 45°36' W 122°47'1 1.3
2018-May-24 03:16N 45°37' W 122°47'0 1.7
2018-May-24 03:01N 45°37' W 122°47'1 2.6
2018-May-24 02:31N 45°38' W 122°47'2 4.5
2018-May-24 02:00N 45°38' W 122°44'2 1.8
2018-May-24 00:59N 45°39' W 122°46'4 8.5
2018-May-24 00:30N 45°43' W 122°46'4 8.7
2018-May-23 23:59N 45°48' W 122°47'4 8.8
2018-May-23 23:30N 45°52' W 122°47'4 8.9
2018-May-23 23:00N 45°56' W 122°48'4 9.0
2018-May-23 22:31N 46°00' W 122°51'1 2.1
2018-May-23 22:00N 45°59' W 122°51'1 1.2
2018-May-23 21:30N 45°59' W 122°50'0 0.0
2018-May-23 20:59N 45°59' W 122°50'1 1.5
2018-May-23 20:30N 45°60' W 122°51'0 0.5
2018-May-23 20:01N 45°59' W 122°50'0 0.0
2018-May-23 19:15N 45°59' W 122°50'0 1.7
2018-May-23 19:01N 45°59' W 122°50'1 1.2
2018-May-23 18:15N 45°60' W 122°51'310.0
2018-May-23 17:54N 46°03' W 122°53'6 8.6
2018-May-23 17:14N 46°07' W 122°59'1 3.7
2018-May-23 17:00N 46°08' W 122°59'0 0.2
2018-May-23 16:16N 46°08' W 122°59'1 4.7
2018-May-23 16:00N 46°07' W 122°58'2 4.2
2018-May-23 15:31N 46°05' W 122°56'0 0.0
2018-May-23 15:01N 46°05' W 122°56'0 0.0
2018-May-23 14:30N 46°05' W 122°56'0 0.0
2018-May-23 14:00N 46°05' W 122°56'0 0.0
2018-May-23 13:30N 46°05' W 122°56'0 0.0
2018-May-23 12:11N 46°05' W 122°56'0 0.0
2018-May-23 11:41N 46°05' W 122°56'0 0.0
2018-May-23 11:16N 46°05' W 122°56'0 0.0
2018-May-23 11:00N 46°05' W 122°56'0 0.0
2018-May-23 10:30N 46°05' W 122°56'3 5.7
2018-May-23 10:00N 46°07' W 122°59'4 7.8
2018-May-23 09:30N 46°09' W 123°04'4 7.8
2018-May-23 09:00N 46°11' W 123°09'4 7.7
2018-May-23 08:31N 46°10' W 123°14'4 7.8
2018-May-23 08:00N 46°09' W 123°19'4 7.7
2018-May-23 07:30N 46°10' W 123°24'4 8.1
2018-May-23 06:59N 46°14' W 123°26'4 8.1
2018-May-23 06:30N 46°16' W 123°30'4 9.1
2018-May-23 06:01N 46°15' W 123°37'6 9.4
2018-May-23 05:21N 46°13' W 123°45'310.1
2018-May-23 05:00N 46°12' W 123°50'1 2.5
2018-May-23 04:28N 46°11' W 123°52'0 0.3
2018-May-23 04:00N 46°11' W 123°52'1 2.7
2018-May-23 03:30N 46°11' W 123°54'1 2.2
2018-May-23 02:54N 46°11' W 123°52'0 0.4
2018-May-23 02:30N 46°11' W 123°52'0 0.0
2018-May-23 02:00N 46°11' W 123°52'0 0.0
2018-May-23 01:30N 46°11' W 123°52'0 0.0
2018-May-23 01:00N 46°11' W 123°52'0 0.0
2018-May-23 00:30N 46°11' W 123°52'3 4.6
2018-May-22 23:46N 46°13' W 123°47'311.5
2018-May-22 23:31N 46°14' W 123°43'612.3
2018-May-22 23:01N 46°15' W 123°35'611.7
2018-May-22 22:31N 46°15' W 123°26'612.8
2018-May-22 22:00N 46°09' W 123°22'713.5
2018-May-22 21:30N 46°10' W 123°13'612.6
2018-May-22 21:00N 46°09' W 123°04'713.3
2018-May-22 20:31N 46°06' W 122°56'1 2.6
2018-May-22 20:01N 46°06' W 122°58'2 3.8
2018-May-22 19:30N 46°08' W 122°59'0 0.0
2018-May-22 19:00N 46°08' W 122°59'0 1.0
2018-May-22 18:30N 46°08' W 123°00'1 0.9
2018-May-22 17:55N 46°08' W 122°59'3 7.7
2018-May-22 17:30N 46°06' W 122°56'713.8
2018-May-22 17:01N 45°60' W 122°51'2 3.2
2018-May-22 16:30N 46°01' W 122°52'4 8.6
2018-May-22 16:00N 46°05' W 122°55'1 1.6
2018-May-22 15:24N 46°05' W 122°56'0 0.0
2018-May-22 15:01N 46°05' W 122°56'0 0.0
2018-May-22 14:30N 46°05' W 122°56'0 0.0
2018-May-22 14:00N 46°05' W 122°56'0 0.0
2018-May-22 13:15N 46°05' W 122°56'0 0.0
2018-May-22 12:57N 46°05' W 122°56'0 0.0
2018-May-22 12:30N 46°05' W 122°56'0 0.0
2018-May-22 12:00N 46°05' W 122°56'0 0.0
2018-May-22 11:30N 46°05' W 122°56'0 0.0
2018-May-22 11:00N 46°05' W 122°56'0 0.0
2018-May-22 10:30N 46°05' W 122°56'0 0.0
2018-May-22 10:00N 46°05' W 122°56'0 0.0
2018-May-22 09:30N 46°05' W 122°56'0 0.0
2018-May-22 09:00N 46°05' W 122°56'0 0.0
2018-May-22 08:30N 46°05' W 122°56'0 0.0
2018-May-22 07:52N 46°05' W 122°56'0 0.0
2018-May-22 07:30N 46°05' W 122°56'0 0.0
2018-May-22 06:52N 46°05' W 122°56'0 0.0
2018-May-22 06:30N 46°05' W 122°56'0 0.0
2018-May-22 05:58N 46°05' W 122°56'0 0.0
2018-May-22 05:30N 46°05' W 122°56'0 0.0
2018-May-22 05:00N 46°05' W 122°56'0 0.0
2018-May-22 04:18N 46°05' W 122°56'0 0.0
2018-May-22 04:00N 46°05' W 122°56'0 0.0
2018-May-22 03:31N 46°05' W 122°56'0 0.0
2018-May-22 02:45N 46°05' W 122°56'0 0.0
2018-May-22 02:30N 46°05' W 122°56'0 0.0
2018-May-22 02:00N 46°05' W 122°56'0 0.0
2018-May-22 01:31N 46°05' W 122°56'0 0.0
2018-May-22 01:00N 46°05' W 122°56'0 0.0
2018-May-22 00:30N 46°05' W 122°56'0 0.0
2018-May-22 00:00N 46°05' W 122°56'0 0.0
2018-May-21 23:30N 46°05' W 122°56'0 0.0
2018-May-21 22:59N 46°05' W 122°56'0 0.0
2018-May-21 22:30N 46°05' W 122°56'0 0.0
2018-May-21 22:00N 46°05' W 122°56'0 0.0
2018-May-21 21:30N 46°05' W 122°56'0 0.0
2018-May-21 21:00N 46°05' W 122°56'0 0.0
2018-May-21 20:30N 46°05' W 122°56'0 0.0
2018-May-21 20:01N 46°05' W 122°56'0 0.0
2018-May-21 19:30N 46°05' W 122°56'0 0.0
2018-May-21 19:00N 46°05' W 122°56'0 0.0
2018-May-21 18:30N 46°05' W 122°56'0 0.0
2018-May-21 18:00N 46°05' W 122°56'0 0.0
2018-May-21 17:30N 46°05' W 122°56'0 0.0
2018-May-21 17:00N 46°05' W 122°56'0 0.0
2018-May-21 16:30N 46°05' W 122°56'0 0.0
2018-May-21 16:00N 46°05' W 122°56'0 0.0
2018-May-21 15:15N 46°05' W 122°56'0 0.0
2018-May-21 15:01N 46°05' W 122°56'0 0.0
2018-May-21 14:30N 46°05' W 122°56'0 0.0
2018-May-21 14:00N 46°05' W 122°56'0 0.0
2018-May-21 13:30N 46°05' W 122°56'0 0.0
2018-May-21 13:00N 46°05' W 122°56'0 0.0
2018-May-21 12:23N 46°05' W 122°56'0 0.0
2018-May-21 11:47N 46°05' W 122°56'0 0.0
2018-May-21 11:30N 46°05' W 122°56'0 0.0
2018-May-21 11:00N 46°05' W 122°56'0 0.0
2018-May-21 10:30N 46°05' W 122°56'0 0.0
2018-May-21 09:44N 46°05' W 122°56'0 0.0
2018-May-21 09:17N 46°05' W 122°56'0 0.0
2018-May-21 09:00N 46°05' W 122°56'0 0.0
2018-May-21 08:30N 46°05' W 122°56'0 0.0
2018-May-21 08:00N 46°05' W 122°56'0 0.0
2018-May-21 07:30N 46°05' W 122°56'0 0.0
2018-May-21 06:59N 46°05' W 122°56'0 0.0
2018-May-21 06:30N 46°05' W 122°56'0 0.0
2018-May-21 06:00N 46°05' W 122°56'0 0.0
2018-May-21 05:30N 46°05' W 122°56'0 0.0
2018-May-21 05:00N 46°05' W 122°56'0 0.0
2018-May-21 04:30N 46°05' W 122°56'0 0.0
2018-May-21 04:00N 46°05' W 122°56'0 0.0
2018-May-21 03:30N 46°05' W 122°56'0 0.0
2018-May-21 03:00N 46°05' W 122°56'0 0.0
2018-May-21 02:30N 46°05' W 122°56'0 0.0
2018-May-21 01:42N 46°05' W 122°56'0 0.0
2018-May-21 01:30N 46°05' W 122°56'0 0.0
2018-May-21 01:00N 46°05' W 122°56'0 0.0
2018-May-21 00:30N 46°05' W 122°56'0 0.0
2018-May-21 00:00N 46°05' W 122°56'0 0.0
2018-May-20 23:31N 46°05' W 122°56'0 0.0
2018-May-20 22:52N 46°05' W 122°56'0 0.0
2018-May-20 22:30N 46°05' W 122°56'0 0.0
2018-May-20 22:00N 46°05' W 122°56'0 0.0
2018-May-20 21:30N 46°05' W 122°56'0 0.0
2018-May-20 21:00N 46°05' W 122°56'0 0.0
2018-May-20 20:30N 46°05' W 122°56'0 0.0
2018-May-20 20:00N 46°05' W 122°56'0 0.0
2018-May-20 19:30N 46°05' W 122°56'0 0.0
2018-May-20 19:00N 46°05' W 122°56'0 0.0
2018-May-20 18:30N 46°05' W 122°56'0 0.0
2018-May-20 17:37N 46°05' W 122°56'0 0.0
2018-May-20 17:30N 46°05' W 122°56'0 0.0
2018-May-20 16:53N 46°05' W 122°56'0 0.0
2018-May-20 16:21N 46°05' W 122°56'0 0.0
2018-May-20 16:00N 46°05' W 122°56'0 0.0
2018-May-20 15:30N 46°05' W 122°56'0 0.0
2018-May-20 15:00N 46°05' W 122°56'0 0.0
2018-May-20 14:30N 46°05' W 122°56'0 0.0
2018-May-20 14:00N 46°05' W 122°56'0 0.0
2018-May-20 13:30N 46°05' W 122°56'0 0.0
2018-May-20 13:00N 46°05' W 122°56'0 0.0
2018-May-20 12:30N 46°05' W 122°56'0 0.0
2018-May-20 12:00N 46°05' W 122°56'0 0.0
2018-May-20 11:30N 46°05' W 122°56'0 0.0
2018-May-20 11:00N 46°05' W 122°56'0 0.0
2018-May-20 10:30N 46°05' W 122°56'0 0.0
2018-May-20 10:00N 46°05' W 122°56'0 0.0
2018-May-20 06:59N 46°05' W 122°56'0 0.0
2018-May-20 06:30N 46°05' W 122°56'0 0.0
2018-May-20 06:00N 46°05' W 122°56'0 0.0
2018-May-20 05:11N 46°05' W 122°56'0 0.0
2018-May-20 05:00N 46°05' W 122°56'0 0.0
2018-May-20 04:30N 46°05' W 122°56'0 0.0
2018-May-20 03:48N 46°05' W 122°56'0 0.0
2018-May-20 03:30N 46°05' W 122°56'0 0.0
2018-May-20 03:00N 46°05' W 122°56'0 0.0
2018-May-20 02:30N 46°05' W 122°56'0 0.0
2018-May-20 02:00N 46°05' W 122°56'0 0.0
2018-May-20 01:30N 46°05' W 122°56'0 0.0
2018-May-20 01:00N 46°05' W 122°56'0 0.0
2018-May-20 00:30N 46°05' W 122°56'0 0.0
2018-May-20 00:00N 46°05' W 122°56'0 0.0
2018-May-19 23:30N 46°05' W 122°56'0 0.0
2018-May-19 23:00N 46°05' W 122°56'0 0.0
2018-May-19 22:30N 46°05' W 122°56'0 0.0
2018-May-19 22:00N 46°05' W 122°56'0 0.0
2018-May-19 21:29N 46°05' W 122°56'0 0.0
2018-May-19 21:00N 46°05' W 122°56'0 0.0
2018-May-19 20:30N 46°05' W 122°56'0 0.0
2018-May-19 20:00N 46°05' W 122°56'0 0.0
2018-May-19 19:30N 46°05' W 122°56'0 0.0
2018-May-19 18:50N 46°05' W 122°56'0 0.0
2018-May-19 18:30N 46°05' W 122°56'0 0.0
2018-May-19 18:00N 46°05' W 122°56'0 0.0
2018-May-19 17:30N 46°05' W 122°56'0 0.0
2018-May-19 17:00N 46°05' W 122°56'0 0.0
2018-May-19 16:30N 46°05' W 122°56'0 0.0
2018-May-19 16:00N 46°05' W 122°56'0 0.0
2018-May-19 15:24N 46°05' W 122°56'0 0.0
2018-May-19 15:00N 46°05' W 122°56'0 0.0
2018-May-19 14:30N 46°05' W 122°56'0 0.0
2018-May-19 14:00N 46°05' W 122°56'0 0.0
2018-May-19 13:30N 46°05' W 122°56'0 0.0
2018-May-19 13:00N 46°05' W 122°56'0 0.0
2018-May-19 12:30N 46°05' W 122°56'0 0.0
2018-May-19 12:00N 46°05' W 122°56'0 0.0
2018-May-19 11:30N 46°05' W 122°56'0 0.0
2018-May-19 11:00N 46°05' W 122°56'0 0.0
2018-May-19 10:30N 46°05' W 122°56'0 0.0
2018-May-19 10:00N 46°05' W 122°56'0 0.0
2018-May-19 09:30N 46°05' W 122°56'0 0.0
2018-May-19 09:00N 46°05' W 122°56'0 0.0
2018-May-19 08:30N 46°05' W 122°56'0 0.0
2018-May-19 08:00N 46°05' W 122°56'0 0.0
2018-May-19 07:30N 46°05' W 122°56'0 0.0
2018-May-19 06:50N 46°05' W 122°56'0 0.0
2018-May-19 06:30N 46°05' W 122°56'0 0.0
2018-May-19 06:00N 46°05' W 122°56'0 0.0
2018-May-19 05:30N 46°05' W 122°56'0 0.0
2018-May-19 05:00N 46°05' W 122°56'0 0.0
2018-May-19 04:30N 46°05' W 122°56'0 0.0
2018-May-19 03:44N 46°05' W 122°56'0 0.0
2018-May-19 03:30N 46°05' W 122°56'0 0.0
2018-May-19 02:59N 46°05' W 122°56'0 0.0
2018-May-19 02:31N 46°05' W 122°56'0 0.0
2018-May-19 01:52N 46°05' W 122°56'0 0.0
2018-May-19 01:12N 46°05' W 122°56'0 0.0
2018-May-19 01:00N 46°05' W 122°56'  

Dump ship's entire track history